createdAt,value
2024-03-10T00:00:54.993Z,0
2024-03-10T00:02:01.135Z,0
2024-03-10T00:03:07.314Z,0
2024-03-10T00:04:13.425Z,0
2024-03-10T00:05:19.573Z,0
2024-03-10T00:06:25.711Z,0
2024-03-10T00:07:30.870Z,0
2024-03-10T00:08:37.021Z,0
2024-03-10T00:09:43.167Z,0
2024-03-10T00:10:49.292Z,0
2024-03-10T00:11:55.446Z,0
2024-03-10T00:13:01.636Z,0
2024-03-10T00:14:07.729Z,0
2024-03-10T00:15:13.867Z,0
2024-03-10T00:16:20.017Z,0
2024-03-10T00:17:26.151Z,0
2024-03-10T00:18:32.336Z,0
2024-03-10T00:19:38.448Z,0
2024-03-10T00:20:44.598Z,0
2024-03-10T00:21:49.782Z,0
2024-03-10T00:22:55.914Z,0
2024-03-10T00:24:02.025Z,0
2024-03-10T00:25:08.178Z,0
2024-03-10T00:26:14.332Z,0
2024-03-10T00:27:20.481Z,0
2024-03-10T00:28:26.621Z,0
2024-03-10T00:29:32.791Z,0
2024-03-10T00:30:38.899Z,0
2024-03-10T00:31:45.029Z,0
2024-03-10T00:32:51.178Z,0
2024-03-10T00:33:57.352Z,0
2024-03-10T00:35:03.467Z,0
2024-03-10T00:36:08.646Z,0
2024-03-10T00:37:14.763Z,0
2024-03-10T00:38:20.935Z,0
2024-03-10T00:39:27.056Z,0
2024-03-10T00:40:33.205Z,0
2024-03-10T00:41:39.385Z,0
2024-03-10T00:42:45.592Z,0
2024-03-10T00:43:51.631Z,0
2024-03-10T00:44:57.771Z,0
2024-03-10T00:46:03.927Z,0
2024-03-10T00:47:10.065Z,0
2024-03-10T00:48:16.203Z,0
2024-03-10T00:49:22.359Z,0
2024-03-10T00:50:27.503Z,0
2024-03-10T00:51:33.639Z,0
2024-03-10T00:52:39.846Z,0
2024-03-10T00:53:45.938Z,0
2024-03-10T00:54:52.097Z,0
2024-03-10T00:55:58.220Z,0
2024-03-10T00:57:04.368Z,0
2024-03-10T00:58:10.514Z,0
2024-03-10T00:59:16.655Z,0
2024-03-10T01:00:22.826Z,0
2024-03-10T01:01:28.990Z,0
2024-03-10T01:02:35.081Z,0
2024-03-10T01:03:41.224Z,0
2024-03-10T01:04:46.385Z,0
2024-03-10T01:05:52.535Z,0
2024-03-10T01:06:58.673Z,0
2024-03-10T01:08:04.810Z,0
2024-03-10T01:09:10.972Z,0
2024-03-10T01:10:17.094Z,0
2024-03-10T01:11:23.278Z,0
2024-03-10T01:12:29.404Z,0
2024-03-10T01:13:35.534Z,0
2024-03-10T01:14:41.672Z,0
2024-03-10T01:15:47.820Z,0
2024-03-10T01:16:53.982Z,0
2024-03-10T01:18:00.095Z,0
2024-03-10T01:19:05.278Z,0
2024-03-10T01:20:11.448Z,0
2024-03-10T01:21:17.543Z,0
2024-03-10T01:22:23.709Z,0
2024-03-10T01:23:29.848Z,0
2024-03-10T01:24:36.009Z,0
2024-03-10T01:25:42.115Z,0
2024-03-10T01:26:48.262Z,0
2024-03-10T01:27:54.426Z,0
2024-03-10T01:29:00.548Z,0
2024-03-10T01:30:06.766Z,0
2024-03-10T01:31:12.919Z,0
2024-03-10T01:32:18.984Z,0
2024-03-10T01:33:24.137Z,0
2024-03-10T01:34:30.278Z,0
2024-03-10T01:35:36.486Z,0
2024-03-10T01:36:42.566Z,0
2024-03-10T01:37:48.703Z,0
2024-03-10T01:38:54.852Z,0
2024-03-10T01:40:00.021Z,0
2024-03-10T01:41:06.146Z,0
2024-03-10T01:42:12.307Z,0
2024-03-10T01:43:18.453Z,0
2024-03-10T01:44:24.613Z,0
2024-03-10T01:45:30.731Z,0
2024-03-10T01:46:36.888Z,0
2024-03-10T01:47:43.142Z,0
2024-03-10T01:48:49.180Z,0
2024-03-10T01:49:55.305Z,0
2024-03-10T01:51:01.451Z,0
2024-03-10T01:52:07.615Z,0
2024-03-10T01:53:13.752Z,0
2024-03-10T01:54:18.903Z,0
2024-03-10T01:55:25.044Z,0
2024-03-10T01:56:31.188Z,0
2024-03-10T01:57:37.324Z,0
2024-03-10T01:58:43.520Z,0
2024-03-10T01:59:49.612Z,0
2024-03-10T02:00:55.780Z,0
2024-03-10T02:02:01.927Z,0
2024-03-10T02:03:08.102Z,0
2024-03-10T02:04:14.282Z,0
2024-03-10T02:05:20.317Z,0
2024-03-10T02:06:26.481Z,0
2024-03-10T02:07:32.612Z,0
2024-03-10T02:08:37.770Z,0
2024-03-10T02:09:43.921Z,0
2024-03-10T02:10:50.062Z,0
2024-03-10T02:11:56.201Z,0
2024-03-10T02:13:02.376Z,0
2024-03-10T02:14:08.487Z,0
2024-03-10T02:15:14.621Z,0
2024-03-10T02:16:20.773Z,0
2024-03-10T02:17:26.941Z,0
2024-03-10T02:18:33.055Z,0
2024-03-10T02:19:39.205Z,0
2024-03-10T02:20:45.354Z,0
2024-03-10T02:21:51.490Z,0
2024-03-10T02:22:56.671Z,0
2024-03-10T02:24:02.795Z,0
2024-03-10T02:25:08.945Z,0
2024-03-10T02:26:15.071Z,0
2024-03-10T02:27:21.227Z,0
2024-03-10T02:28:27.382Z,0
2024-03-10T02:29:33.506Z,0
2024-03-10T02:30:39.645Z,0
2024-03-10T02:31:45.784Z,0
2024-03-10T02:32:51.946Z,0
2024-03-10T02:33:58.100Z,0
2024-03-10T02:35:04.222Z,0
2024-03-10T02:36:10.365Z,0
2024-03-10T02:37:15.545Z,0
2024-03-10T02:38:21.675Z,0
2024-03-10T02:39:27.809Z,0
2024-03-10T02:40:33.953Z,0
2024-03-10T02:41:40.101Z,0
2024-03-10T02:42:46.242Z,0
2024-03-10T02:43:52.399Z,0
2024-03-10T02:44:58.517Z,0
2024-03-10T02:46:04.673Z,0
2024-03-10T02:47:10.810Z,0
2024-03-10T02:48:16.962Z,0
2024-03-10T02:49:23.111Z,0
2024-03-10T02:50:29.274Z,0
2024-03-10T02:51:34.409Z,0
2024-03-10T02:52:40.547Z,0
2024-03-10T02:53:46.693Z,0
2024-03-10T02:54:52.850Z,0
2024-03-10T02:55:59.008Z,0
2024-03-10T02:57:05.122Z,0
2024-03-10T02:58:11.284Z,0
2024-03-10T02:59:17.410Z,0
2024-03-10T03:00:23.552Z,0
2024-03-10T03:01:29.711Z,0
2024-03-10T03:02:35.836Z,0
2024-03-10T03:03:41.985Z,0
2024-03-10T03:04:48.119Z,0
2024-03-10T03:05:53.282Z,0
2024-03-10T03:06:59.449Z,0
2024-03-10T03:08:05.581Z,0
2024-03-10T03:09:11.739Z,0
2024-03-10T03:10:17.849Z,0
2024-03-10T03:11:24.006Z,0
2024-03-10T03:12:30.179Z,0
2024-03-10T03:13:36.273Z,0
2024-03-10T03:14:42.428Z,0
2024-03-10T03:15:48.571Z,0
2024-03-10T03:16:54.715Z,0
2024-03-10T03:18:00.914Z,0
2024-03-10T03:19:07.007Z,0
2024-03-10T03:20:12.162Z,0
2024-03-10T03:21:18.306Z,0
2024-03-10T03:22:24.456Z,0
2024-03-10T03:23:30.613Z,0
2024-03-10T03:24:36.745Z,0
2024-03-10T03:25:41.910Z,0
2024-03-10T03:26:47.070Z,0
2024-03-10T03:27:53.207Z,0
2024-03-10T03:28:59.351Z,0
2024-03-10T03:30:05.497Z,0
2024-03-10T03:31:11.638Z,0
2024-03-10T03:32:17.782Z,0
2024-03-10T03:33:23.934Z,0
2024-03-10T03:34:30.074Z,0
2024-03-10T03:35:36.225Z,0
2024-03-10T03:36:42.363Z,0
2024-03-10T03:37:48.503Z,0
2024-03-10T03:38:54.655Z,0
2024-03-10T03:40:00.802Z,0
2024-03-10T03:41:05.942Z,0
2024-03-10T03:42:12.094Z,0
2024-03-10T03:43:18.233Z,0
2024-03-10T03:44:24.383Z,0
2024-03-10T03:45:30.544Z,0
2024-03-10T03:46:36.664Z,0
2024-03-10T03:47:42.825Z,0
2024-03-10T03:48:48.980Z,0
2024-03-10T03:49:55.091Z,0
2024-03-10T03:51:01.235Z,0
2024-03-10T03:52:07.398Z,0
2024-03-10T03:53:13.521Z,0
2024-03-10T03:54:19.667Z,0
2024-03-10T03:55:24.827Z,0
2024-03-10T03:56:31.000Z,0
2024-03-10T03:57:37.120Z,0
2024-03-10T03:58:43.258Z,0
2024-03-10T03:59:49.407Z,0
2024-03-10T04:00:55.574Z,0
2024-03-10T04:02:01.681Z,0
2024-03-10T04:03:07.847Z,0
2024-03-10T04:04:13.998Z,0
2024-03-10T04:05:20.136Z,0
2024-03-10T04:06:26.262Z,0
2024-03-10T04:07:32.393Z,0
2024-03-10T04:08:38.552Z,0
2024-03-10T04:09:44.686Z,0
2024-03-10T04:10:49.851Z,0
2024-03-10T04:11:55.984Z,0
2024-03-10T04:13:02.155Z,0
2024-03-10T04:14:08.283Z,0
2024-03-10T04:15:14.419Z,0
2024-03-10T04:16:20.570Z,0
2024-03-10T04:17:26.714Z,0
2024-03-10T04:18:32.855Z,0
2024-03-10T04:19:38.997Z,0
2024-03-10T04:20:45.128Z,0
2024-03-10T04:21:51.301Z,0
2024-03-10T04:22:57.415Z,0
2024-03-10T04:24:03.571Z,0
2024-03-10T04:25:08.722Z,0
2024-03-10T04:26:14.862Z,0
2024-03-10T04:27:21.014Z,0
2024-03-10T04:28:27.152Z,0
2024-03-10T04:29:33.314Z,0
2024-03-10T04:30:39.453Z,0
2024-03-10T04:31:45.603Z,0
2024-03-10T04:32:51.743Z,0
2024-03-10T04:33:57.867Z,0
2024-03-10T04:35:04.006Z,0
2024-03-10T04:36:10.164Z,0
2024-03-10T04:37:16.329Z,0
2024-03-10T04:38:22.442Z,0
2024-03-10T04:39:27.596Z,0
2024-03-10T04:40:33.741Z,0
2024-03-10T04:41:39.898Z,0
2024-03-10T04:42:46.044Z,0
2024-03-10T04:43:52.180Z,0
2024-03-10T04:44:58.314Z,0
2024-03-10T04:46:04.483Z,0
2024-03-10T04:47:10.603Z,0
2024-03-10T04:48:16.751Z,0
2024-03-10T04:49:22.884Z,0
2024-03-10T04:50:29.039Z,0
2024-03-10T04:51:35.243Z,0
2024-03-10T04:52:41.317Z,0
2024-03-10T04:53:46.482Z,0
2024-03-10T04:54:52.636Z,0
2024-03-10T04:55:58.764Z,0
2024-03-10T04:57:04.908Z,0
2024-03-10T04:58:11.053Z,0
2024-03-10T04:59:17.196Z,0
2024-03-10T05:00:23.346Z,0
2024-03-10T05:01:29.491Z,0
2024-03-10T05:02:35.658Z,0
2024-03-10T05:03:41.769Z,0
2024-03-10T05:04:47.910Z,0
2024-03-10T05:05:54.055Z,0
2024-03-10T05:07:00.208Z,0
2024-03-10T05:08:05.381Z,0
2024-03-10T05:09:11.497Z,0
2024-03-10T05:10:17.642Z,0
2024-03-10T05:11:23.805Z,0
2024-03-10T05:12:29.935Z,0
2024-03-10T05:13:36.072Z,0
2024-03-10T05:14:42.221Z,0
2024-03-10T05:15:48.364Z,0
2024-03-10T05:16:54.503Z,0
2024-03-10T05:18:00.651Z,0
2024-03-10T05:19:06.810Z,0
2024-03-10T05:20:12.948Z,0
2024-03-10T05:21:18.117Z,0
2024-03-10T05:22:24.245Z,0
2024-03-10T05:23:30.393Z,0
2024-03-10T05:24:36.532Z,0
2024-03-10T05:25:42.672Z,0
2024-03-10T05:26:48.810Z,0
2024-03-10T05:27:54.975Z,0
2024-03-10T05:29:01.104Z,0
2024-03-10T05:30:07.242Z,0
2024-03-10T05:31:13.388Z,0
2024-03-10T05:32:19.562Z,0
2024-03-10T05:33:25.670Z,0
2024-03-10T05:34:31.819Z,0
2024-03-10T05:35:36.994Z,0
2024-03-10T05:36:43.142Z,0
2024-03-10T05:37:49.266Z,0
2024-03-10T05:38:55.409Z,0
2024-03-10T05:40:01.563Z,0
2024-03-10T05:41:07.687Z,0
2024-03-10T05:42:13.846Z,0
2024-03-10T05:43:19.991Z,0
2024-03-10T05:44:26.123Z,0
2024-03-10T05:45:32.264Z,0
2024-03-10T05:46:38.501Z,0
2024-03-10T05:47:44.555Z,0
2024-03-10T05:48:50.706Z,0
2024-03-10T05:49:55.854Z,0
2024-03-10T05:51:01.998Z,0
2024-03-10T05:52:08.224Z,0
2024-03-10T05:53:14.283Z,5
2024-03-10T05:54:20.426Z,5
2024-03-10T05:55:26.576Z,5
2024-03-10T05:56:32.720Z,5
2024-03-10T05:57:38.859Z,5
2024-03-10T05:58:44.992Z,11
2024-03-10T05:59:51.149Z,11
2024-03-10T06:00:57.287Z,11
2024-03-10T06:02:03.429Z,11
2024-03-10T06:03:09.586Z,16
2024-03-10T06:04:14.726Z,16
2024-03-10T06:05:20.872Z,16
2024-03-10T06:06:27.015Z,22
2024-03-10T06:07:33.163Z,22
2024-03-10T06:08:39.327Z,28
2024-03-10T06:09:45.468Z,28
2024-03-10T06:10:51.599Z,33
2024-03-10T06:11:57.737Z,33
2024-03-10T06:13:03.881Z,39
2024-03-10T06:14:10.007Z,45
2024-03-10T06:15:16.154Z,45
2024-03-10T06:16:22.325Z,50
2024-03-10T06:17:28.475Z,50
2024-03-10T06:18:33.616Z,56
2024-03-10T06:19:39.750Z,61
2024-03-10T06:20:45.922Z,67
2024-03-10T06:21:52.039Z,67
2024-03-10T06:22:58.189Z,73
2024-03-10T06:24:04.348Z,90
2024-03-10T06:25:10.493Z,95
2024-03-10T06:26:16.614Z,101
2024-03-10T06:27:22.756Z,101
2024-03-10T06:28:28.899Z,101
2024-03-10T06:29:35.038Z,101
2024-03-10T06:30:41.183Z,90
2024-03-10T06:31:47.354Z,90
2024-03-10T06:32:52.484Z,84
2024-03-10T06:33:58.622Z,73
2024-03-10T06:35:04.765Z,73
2024-03-10T06:36:10.917Z,73
2024-03-10T06:37:17.046Z,73
2024-03-10T06:38:23.206Z,73
2024-03-10T06:39:29.347Z,73
2024-03-10T06:40:35.487Z,73
2024-03-10T06:41:41.667Z,73
2024-03-10T06:42:47.774Z,73
2024-03-10T06:43:53.915Z,73
2024-03-10T06:45:00.065Z,73
2024-03-10T06:46:06.218Z,78
2024-03-10T06:47:11.367Z,78
2024-03-10T06:48:17.496Z,84
2024-03-10T06:49:23.648Z,90
2024-03-10T06:50:29.780Z,95
2024-03-10T06:51:35.933Z,95
2024-03-10T06:52:42.111Z,95
2024-03-10T06:53:48.223Z,95
2024-03-10T06:54:54.364Z,95
2024-03-10T06:56:00.516Z,90
2024-03-10T06:57:06.676Z,90
2024-03-10T06:58:12.832Z,90
2024-03-10T06:59:18.943Z,90
2024-03-10T07:00:25.107Z,90
2024-03-10T07:01:30.236Z,90
2024-03-10T07:02:36.378Z,90
2024-03-10T07:03:42.525Z,90
2024-03-10T07:04:48.728Z,84
2024-03-10T07:05:54.814Z,84
2024-03-10T07:07:00.958Z,78
2024-03-10T07:08:07.096Z,78
2024-03-10T07:09:13.242Z,78
2024-03-10T07:10:19.402Z,78
2024-03-10T07:11:25.523Z,84
2024-03-10T07:12:31.676Z,84
2024-03-10T07:13:37.831Z,84
2024-03-10T07:14:43.981Z,84
2024-03-10T07:15:49.183Z,84
2024-03-10T07:16:55.269Z,90
2024-03-10T07:18:01.407Z,90
2024-03-10T07:19:07.546Z,90
2024-03-10T07:20:13.691Z,95
2024-03-10T07:21:19.837Z,95
2024-03-10T07:22:25.977Z,101
2024-03-10T07:23:32.148Z,106
2024-03-10T07:24:38.263Z,112
2024-03-10T07:25:44.429Z,123
2024-03-10T07:26:50.543Z,140
2024-03-10T07:27:56.700Z,151
2024-03-10T07:29:01.862Z,157
2024-03-10T07:30:07.038Z,163
2024-03-10T07:31:12.210Z,174
2024-03-10T07:32:18.340Z,180
2024-03-10T07:33:24.475Z,191
2024-03-10T07:34:30.606Z,191
2024-03-10T07:35:36.765Z,196
2024-03-10T07:36:42.905Z,202
2024-03-10T07:37:49.050Z,213
2024-03-10T07:38:55.188Z,264
2024-03-10T07:40:01.355Z,461
2024-03-10T07:41:07.497Z,286
2024-03-10T07:42:13.653Z,286
2024-03-10T07:43:19.889Z,399
2024-03-10T07:44:26.087Z,421
2024-03-10T07:45:31.195Z,444
2024-03-10T07:46:37.323Z,534
2024-03-10T07:47:43.500Z,624
2024-03-10T07:48:49.642Z,585
2024-03-10T07:49:55.767Z,360
2024-03-10T07:51:01.912Z,326
2024-03-10T07:52:08.047Z,916
2024-03-10T07:53:14.210Z,849
2024-03-10T07:54:20.338Z,534
2024-03-10T07:55:26.480Z,371
2024-03-10T07:56:32.656Z,326
2024-03-10T07:57:38.779Z,405
2024-03-10T07:58:44.914Z,241
2024-03-10T07:59:50.075Z,213
2024-03-10T08:00:56.215Z,213
2024-03-10T08:02:02.377Z,202
2024-03-10T08:03:08.508Z,202
2024-03-10T08:04:14.667Z,196
2024-03-10T08:05:20.793Z,191
2024-03-10T08:06:26.923Z,185
2024-03-10T08:07:33.081Z,180
2024-03-10T08:08:39.204Z,174
2024-03-10T08:09:45.359Z,168
2024-03-10T08:10:51.517Z,168
2024-03-10T08:11:57.668Z,168
2024-03-10T08:13:03.799Z,168
2024-03-10T08:14:08.943Z,168
2024-03-10T08:15:15.108Z,168
2024-03-10T08:16:21.241Z,174
2024-03-10T08:17:27.369Z,180
2024-03-10T08:18:33.523Z,185
2024-03-10T08:19:39.719Z,196
2024-03-10T08:20:45.851Z,208
2024-03-10T08:21:51.955Z,225
2024-03-10T08:22:58.098Z,230
2024-03-10T08:24:04.238Z,247
2024-03-10T08:25:10.422Z,270
2024-03-10T08:26:16.542Z,281
2024-03-10T08:27:22.667Z,292
2024-03-10T08:28:27.825Z,303
2024-03-10T08:29:34.000Z,303
2024-03-10T08:30:40.116Z,309
2024-03-10T08:31:46.288Z,303
2024-03-10T08:32:52.408Z,298
2024-03-10T08:33:58.636Z,292
2024-03-10T08:35:04.711Z,275
2024-03-10T08:36:10.842Z,258
2024-03-10T08:37:17.001Z,241
2024-03-10T08:38:23.146Z,230
2024-03-10T08:39:29.253Z,219
2024-03-10T08:40:35.406Z,213
2024-03-10T08:41:41.542Z,202
2024-03-10T08:42:46.692Z,196
2024-03-10T08:43:52.849Z,196
2024-03-10T08:44:58.992Z,191
2024-03-10T08:46:05.133Z,185
2024-03-10T08:47:11.276Z,191
2024-03-10T08:48:17.421Z,191
2024-03-10T08:49:23.555Z,202
2024-03-10T08:50:29.703Z,208
2024-03-10T08:51:35.854Z,219
2024-03-10T08:52:42.019Z,230
2024-03-10T08:53:48.152Z,258
2024-03-10T08:54:54.285Z,258
2024-03-10T08:56:00.448Z,258
2024-03-10T08:57:05.584Z,253
2024-03-10T08:58:11.734Z,247
2024-03-10T08:59:17.883Z,247
2024-03-10T09:00:24.020Z,247
2024-03-10T09:01:30.149Z,253
2024-03-10T09:02:35.323Z,258
2024-03-10T09:03:41.462Z,258
2024-03-10T09:04:47.642Z,258
2024-03-10T09:05:53.766Z,264
2024-03-10T09:06:59.902Z,264
2024-03-10T09:08:06.048Z,275
2024-03-10T09:09:12.184Z,286
2024-03-10T09:10:18.340Z,298
2024-03-10T09:11:24.466Z,303
2024-03-10T09:12:30.609Z,315
2024-03-10T09:13:36.757Z,326
2024-03-10T09:14:42.897Z,331
2024-03-10T09:15:49.043Z,331
2024-03-10T09:16:54.187Z,320
2024-03-10T09:18:00.336Z,315
2024-03-10T09:19:06.492Z,309
2024-03-10T09:20:12.628Z,298
2024-03-10T09:21:18.790Z,286
2024-03-10T09:22:24.938Z,281
2024-03-10T09:23:31.059Z,281
2024-03-10T09:24:37.228Z,292
2024-03-10T09:25:43.336Z,315
2024-03-10T09:26:49.513Z,326
2024-03-10T09:27:55.660Z,320
2024-03-10T09:29:01.775Z,315
2024-03-10T09:30:07.913Z,309
2024-03-10T09:31:13.080Z,315
2024-03-10T09:32:19.212Z,326
2024-03-10T09:33:25.365Z,326
2024-03-10T09:34:31.514Z,320
2024-03-10T09:35:37.653Z,303
2024-03-10T09:36:43.807Z,292
2024-03-10T09:37:49.930Z,286
2024-03-10T09:38:56.077Z,286
2024-03-10T09:40:02.216Z,286
2024-03-10T09:41:08.353Z,292
2024-03-10T09:42:14.489Z,326
2024-03-10T09:43:20.678Z,354
2024-03-10T09:44:26.785Z,416
2024-03-10T09:45:31.948Z,495
2024-03-10T09:46:38.093Z,579
2024-03-10T09:47:44.231Z,562
2024-03-10T09:48:50.398Z,624
2024-03-10T09:49:56.514Z,736
2024-03-10T09:51:02.649Z,1186
2024-03-10T09:52:08.808Z,798
2024-03-10T09:53:14.953Z,742
2024-03-10T09:54:21.116Z,675
2024-03-10T09:55:27.238Z,573
2024-03-10T09:56:33.386Z,568
2024-03-10T09:57:39.513Z,843
2024-03-10T09:58:45.665Z,821
2024-03-10T09:59:50.846Z,928
2024-03-10T10:00:57.181Z,928
2024-03-10T10:02:03.114Z,894
2024-03-10T10:03:09.251Z,984
2024-03-10T10:04:15.414Z,2008
2024-03-10T10:05:21.543Z,1355
2024-03-10T10:06:27.669Z,1726
2024-03-10T10:07:33.859Z,990
2024-03-10T10:08:39.966Z,1288
2024-03-10T10:09:46.110Z,1125
2024-03-10T10:10:52.258Z,1552
2024-03-10T10:11:58.385Z,1186
2024-03-10T10:13:04.622Z,905
2024-03-10T10:14:09.705Z,720
2024-03-10T10:15:15.835Z,641
2024-03-10T10:16:22.002Z,607
2024-03-10T10:17:28.115Z,601
2024-03-10T10:18:34.280Z,596
2024-03-10T10:19:40.405Z,635
2024-03-10T10:20:46.550Z,675
2024-03-10T10:21:52.698Z,652
2024-03-10T10:22:58.836Z,720
2024-03-10T10:24:04.999Z,658
2024-03-10T10:25:11.136Z,1237
2024-03-10T10:26:17.287Z,1608
2024-03-10T10:27:23.416Z,877
2024-03-10T10:28:28.570Z,1102
2024-03-10T10:29:34.717Z,860
2024-03-10T10:30:40.855Z,1766
2024-03-10T10:31:46.994Z,1884
2024-03-10T10:32:53.167Z,1012
2024-03-10T10:33:59.293Z,720
2024-03-10T10:35:05.456Z,1080
2024-03-10T10:36:11.651Z,1215
2024-03-10T10:37:17.709Z,1141
2024-03-10T10:38:23.846Z,765
2024-03-10T10:39:29.999Z,540
2024-03-10T10:40:36.148Z,472
2024-03-10T10:41:42.291Z,410
2024-03-10T10:42:47.442Z,365
2024-03-10T10:43:53.589Z,337
2024-03-10T10:44:59.730Z,315
2024-03-10T10:46:06.051Z,309
2024-03-10T10:47:12.020Z,309
2024-03-10T10:48:18.150Z,309
2024-03-10T10:49:24.329Z,315
2024-03-10T10:50:30.459Z,320
2024-03-10T10:51:36.595Z,320
2024-03-10T10:52:42.744Z,309
2024-03-10T10:53:48.888Z,303
2024-03-10T10:54:55.038Z,292
2024-03-10T10:56:01.174Z,292
2024-03-10T10:57:06.328Z,292
2024-03-10T10:58:12.457Z,298
2024-03-10T10:59:18.625Z,309
2024-03-10T11:00:24.771Z,303
2024-03-10T11:01:30.900Z,298
2024-03-10T11:02:37.039Z,292
2024-03-10T11:03:43.309Z,286
2024-03-10T11:04:49.324Z,275
2024-03-10T11:05:55.491Z,258
2024-03-10T11:07:01.608Z,247
2024-03-10T11:08:07.760Z,241
2024-03-10T11:09:13.896Z,230
2024-03-10T11:10:20.056Z,230
2024-03-10T11:11:25.205Z,230
2024-03-10T11:12:31.336Z,236
2024-03-10T11:13:37.482Z,241
2024-03-10T11:14:43.672Z,247
2024-03-10T11:15:49.768Z,247
2024-03-10T11:16:55.912Z,247
2024-03-10T11:18:02.082Z,247
2024-03-10T11:19:08.198Z,247
2024-03-10T11:20:14.337Z,247
2024-03-10T11:21:20.476Z,247
2024-03-10T11:22:26.652Z,241
2024-03-10T11:23:32.773Z,236
2024-03-10T11:24:38.912Z,230
2024-03-10T11:25:44.073Z,225
2024-03-10T11:26:50.211Z,225
2024-03-10T11:27:56.383Z,230
2024-03-10T11:29:02.494Z,230
2024-03-10T11:30:08.636Z,225
2024-03-10T11:31:14.782Z,225
2024-03-10T11:32:20.926Z,225
2024-03-10T11:33:27.085Z,225
2024-03-10T11:34:33.205Z,230
2024-03-10T11:35:39.352Z,230
2024-03-10T11:36:45.525Z,225
2024-03-10T11:37:51.645Z,225
2024-03-10T11:38:57.809Z,219
2024-03-10T11:40:02.946Z,219
2024-03-10T11:41:09.096Z,213
2024-03-10T11:42:15.236Z,208
2024-03-10T11:43:21.390Z,208
2024-03-10T11:44:27.531Z,208
2024-03-10T11:45:33.662Z,208
2024-03-10T11:46:39.809Z,213
2024-03-10T11:47:46.192Z,219
2024-03-10T11:48:52.102Z,225
2024-03-10T11:49:58.255Z,225
2024-03-10T11:51:04.397Z,225
2024-03-10T11:52:10.536Z,219
2024-03-10T11:53:16.665Z,219
2024-03-10T11:54:21.880Z,219
2024-03-10T11:55:27.996Z,219
2024-03-10T11:56:34.115Z,225
2024-03-10T11:57:40.255Z,230
2024-03-10T11:58:46.406Z,236
2024-03-10T11:59:52.540Z,236
2024-03-10T12:00:58.710Z,236
2024-03-10T12:02:04.833Z,230
2024-03-10T12:03:10.994Z,225
2024-03-10T12:04:17.136Z,213
2024-03-10T12:05:23.263Z,202
2024-03-10T12:06:29.408Z,202
2024-03-10T12:07:35.551Z,202
2024-03-10T12:08:40.727Z,208
2024-03-10T12:09:46.851Z,213
2024-03-10T12:10:52.993Z,213
2024-03-10T12:11:59.287Z,208
2024-03-10T12:13:05.452Z,202
2024-03-10T12:14:11.560Z,191
2024-03-10T12:15:17.679Z,185
2024-03-10T12:16:23.841Z,180
2024-03-10T12:17:29.958Z,174
2024-03-10T12:18:36.124Z,180
2024-03-10T12:19:42.259Z,180
2024-03-10T12:20:48.398Z,180
2024-03-10T12:21:54.549Z,174
2024-03-10T12:22:59.703Z,168
2024-03-10T12:24:05.849Z,163
2024-03-10T12:25:11.980Z,157
2024-03-10T12:26:18.138Z,146
2024-03-10T12:27:24.300Z,140
2024-03-10T12:28:30.437Z,135
2024-03-10T12:29:36.569Z,129
2024-03-10T12:30:42.707Z,123
2024-03-10T12:31:48.838Z,118
2024-03-10T12:32:54.988Z,118
2024-03-10T12:34:01.126Z,118
2024-03-10T12:35:07.278Z,123
2024-03-10T12:36:13.413Z,129
2024-03-10T12:37:18.595Z,135
2024-03-10T12:38:24.740Z,146
2024-03-10T12:39:30.924Z,151
2024-03-10T12:40:37.012Z,163
2024-03-10T12:41:43.146Z,163
2024-03-10T12:42:49.344Z,163
2024-03-10T12:43:54.462Z,163
2024-03-10T12:45:00.624Z,163
2024-03-10T12:46:06.745Z,168
2024-03-10T12:47:12.883Z,174
2024-03-10T12:48:19.035Z,174
2024-03-10T12:49:25.200Z,180
2024-03-10T12:50:31.332Z,180
2024-03-10T12:51:37.476Z,180
2024-03-10T12:52:43.609Z,174
2024-03-10T12:53:49.752Z,168
2024-03-10T12:54:55.906Z,163
2024-03-10T12:56:02.226Z,163
2024-03-10T12:57:08.201Z,163
2024-03-10T12:58:13.339Z,163
2024-03-10T12:59:19.513Z,163
2024-03-10T13:00:25.648Z,168
2024-03-10T13:01:31.801Z,168
2024-03-10T13:02:37.904Z,168
2024-03-10T13:03:44.055Z,163
2024-03-10T13:04:50.195Z,151
2024-03-10T13:05:56.464Z,146
2024-03-10T13:07:02.752Z,135
2024-03-10T13:08:08.753Z,129
2024-03-10T13:09:14.894Z,129
2024-03-10T13:10:21.034Z,123
2024-03-10T13:11:27.197Z,123
2024-03-10T13:12:32.349Z,123
2024-03-10T13:13:38.700Z,123
2024-03-10T13:14:44.642Z,123
2024-03-10T13:15:50.803Z,123
2024-03-10T13:16:56.907Z,118
2024-03-10T13:18:03.075Z,118
2024-03-10T13:19:09.209Z,112
2024-03-10T13:20:15.355Z,106
2024-03-10T13:21:21.514Z,101
2024-03-10T13:22:27.656Z,95
2024-03-10T13:23:33.797Z,95
2024-03-10T13:24:39.918Z,90
2024-03-10T13:25:46.141Z,90
2024-03-10T13:26:51.213Z,84
2024-03-10T13:27:57.350Z,84
2024-03-10T13:29:03.502Z,84
2024-03-10T13:30:09.652Z,90
2024-03-10T13:31:15.855Z,95
2024-03-10T13:32:21.949Z,101
2024-03-10T13:33:28.078Z,106
2024-03-10T13:34:34.300Z,112
2024-03-10T13:35:40.369Z,118
2024-03-10T13:36:46.514Z,123
2024-03-10T13:37:52.744Z,129
2024-03-10T13:38:58.800Z,135
2024-03-10T13:40:04.951Z,140
2024-03-10T13:41:11.078Z,151
2024-03-10T13:42:16.240Z,151
2024-03-10T13:43:22.378Z,151
2024-03-10T13:44:28.545Z,151
2024-03-10T13:45:34.663Z,146
2024-03-10T13:46:40.801Z,140
2024-03-10T13:47:46.953Z,129
2024-03-10T13:49:59.238Z,112
2024-03-10T13:51:05.440Z,112
2024-03-10T13:52:11.530Z,112
2024-03-10T13:53:17.681Z,112
2024-03-10T13:54:23.824Z,118
2024-03-10T13:55:29.949Z,123
2024-03-10T13:56:35.113Z,123
2024-03-10T13:57:41.281Z,123
2024-03-10T13:58:47.413Z,123
2024-03-10T13:59:53.573Z,123
2024-03-10T14:00:59.687Z,123
2024-03-10T14:02:05.842Z,123
2024-03-10T14:03:11.975Z,123
2024-03-10T14:04:18.162Z,123
2024-03-10T14:05:24.260Z,123
2024-03-10T14:06:30.397Z,123
2024-03-10T14:07:36.577Z,123
2024-03-10T14:08:42.706Z,123
2024-03-10T14:09:48.910Z,118
2024-03-10T14:10:54.001Z,118
2024-03-10T14:12:00.139Z,118
2024-03-10T14:13:06.297Z,112
2024-03-10T14:14:12.421Z,112
2024-03-10T14:15:18.587Z,106
2024-03-10T14:16:24.722Z,106
2024-03-10T14:17:30.846Z,106
2024-03-10T14:18:37.026Z,106
2024-03-10T14:19:43.135Z,106
2024-03-10T14:20:49.315Z,106
2024-03-10T14:21:55.432Z,101
2024-03-10T14:23:01.573Z,101
2024-03-10T14:24:07.730Z,101
2024-03-10T14:25:12.860Z,101
2024-03-10T14:26:19.016Z,95
2024-03-10T14:27:25.174Z,95
2024-03-10T14:28:31.307Z,95
2024-03-10T14:29:37.444Z,90
2024-03-10T14:30:43.589Z,84
2024-03-10T14:31:49.726Z,84
2024-03-10T14:32:55.937Z,84
2024-03-10T14:34:02.026Z,84
2024-03-10T14:35:08.226Z,78
2024-03-10T14:36:14.329Z,78
2024-03-10T14:37:20.468Z,84
2024-03-10T14:38:26.611Z,84
2024-03-10T14:39:31.749Z,84
2024-03-10T14:40:37.914Z,84
2024-03-10T14:41:44.164Z,84
2024-03-10T14:42:50.212Z,84
2024-03-10T14:43:56.322Z,84
2024-03-10T14:45:02.482Z,84
2024-03-10T14:46:08.599Z,78
2024-03-10T14:47:14.759Z,78
2024-03-10T14:48:20.894Z,78
2024-03-10T14:49:27.066Z,78
2024-03-10T14:50:33.189Z,73
2024-03-10T14:51:39.345Z,67
2024-03-10T14:52:45.473Z,73
2024-03-10T14:53:50.623Z,78
2024-03-10T14:54:56.789Z,78
2024-03-10T14:56:02.908Z,73
2024-03-10T14:57:09.080Z,67
2024-03-10T14:58:15.209Z,67
2024-03-10T14:59:21.347Z,67
2024-03-10T15:00:27.506Z,67
2024-03-10T15:01:33.628Z,67
2024-03-10T15:02:39.765Z,61
2024-03-10T15:03:45.920Z,61
2024-03-10T15:04:52.070Z,67
2024-03-10T15:05:58.231Z,67
2024-03-10T15:07:04.358Z,61
2024-03-10T15:08:09.508Z,61
2024-03-10T15:09:15.657Z,50
2024-03-10T15:10:21.800Z,56
2024-03-10T15:11:28.048Z,56
2024-03-10T15:12:34.094Z,50
2024-03-10T15:13:40.240Z,45
2024-03-10T15:14:46.361Z,50
2024-03-10T15:15:52.507Z,45
2024-03-10T15:16:58.645Z,39
2024-03-10T15:18:05.001Z,39
2024-03-10T15:19:10.942Z,45
2024-03-10T15:20:17.091Z,45
2024-03-10T15:21:23.258Z,45
2024-03-10T15:22:28.388Z,56
2024-03-10T15:23:34.553Z,50
2024-03-10T15:24:40.790Z,45
2024-03-10T15:25:46.816Z,45
2024-03-10T15:26:52.962Z,39
2024-03-10T15:27:59.105Z,45
2024-03-10T15:29:05.242Z,50
2024-03-10T15:30:11.404Z,45
2024-03-10T15:31:17.525Z,45
2024-03-10T15:32:23.682Z,45
2024-03-10T15:33:29.833Z,39
2024-03-10T15:34:35.957Z,33
2024-03-10T15:35:42.130Z,33
2024-03-10T15:36:47.261Z,33
2024-03-10T15:37:53.415Z,33
2024-03-10T15:38:59.549Z,33
2024-03-10T15:40:05.764Z,33
2024-03-10T15:41:11.851Z,28